sensor_id;sensor_type;location;lat;lon;timestamp;temperature;humidity
2571;DHT22;1295;51.130;6.732;2023-03-31T00:01:03;11.30;99.90
2571;DHT22;1295;51.130;6.732;2023-03-31T00:03:29;11.40;99.90
2571;DHT22;1295;51.130;6.732;2023-03-31T00:05:56;11.30;99.90
2571;DHT22;1295;51.130;6.732;2023-03-31T00:08:21;11.30;99.90
2571;DHT22;1295;51.130;6.732;2023-03-31T00:10:47;11.30;99.90
2571;DHT22;1295;51.130;6.732;2023-03-31T00:13:13;11.30;99.90
2571;DHT22;1295;51.130;6.732;2023-03-31T00:15:44;11.30;99.90
2571;DHT22;1295;51.130;6.732;2023-03-31T00:18:09;11.30;99.90
2571;DHT22;1295;51.130;6.732;2023-03-31T00:20:35;11.30;99.90
2571;DHT22;1295;51.130;6.732;2023-03-31T00:23:01;11.40;99.90
2571;DHT22;1295;51.130;6.732;2023-03-31T00:25:26;11.40;99.90
2571;DHT22;1295;51.130;6.732;2023-03-31T00:27:52;11.40;99.90
2571;DHT22;1295;51.130;6.732;2023-03-31T00:30:18;11.30;99.90
2571;DHT22;1295;51.130;6.732;2023-03-31T00:32:43;11.30;99.90
2571;DHT22;1295;51.130;6.732;2023-03-31T00:35:09;11.40;99.90
2571;DHT22;1295;51.130;6.732;2023-03-31T00:37:35;11.30;99.90
2571;DHT22;1295;51.130;6.732;2023-03-31T00:40:01;11.30;99.90
2571;DHT22;1295;51.130;6.732;2023-03-31T00:42:27;11.30;99.90
2571;DHT22;1295;51.130;6.732;2023-03-31T00:47:31;11.20;99.90
2571;DHT22;1295;51.130;6.732;2023-03-31T00:49:56;11.00;99.90
2571;DHT22;1295;51.130;6.732;2023-03-31T00:52:27;11.00;99.90
2571;DHT22;1295;51.130;6.732;2023-03-31T00:54:53;11.00;99.90
2571;DHT22;1295;51.130;6.732;2023-03-31T00:57:17;11.00;99.90
2571;DHT22;1295;51.130;6.732;2023-03-31T00:59:44;11.00;99.90
2571;DHT22;1295;51.130;6.732;2023-03-31T01:02:08;11.10;99.90
2571;DHT22;1295;51.130;6.732;2023-03-31T01:04:36;11.30;99.90
2571;DHT22;1295;51.130;6.732;2023-03-31T01:07:04;11.30;99.90
2571;DHT22;1295;51.130;6.732;2023-03-31T01:09:29;11.40;99.90
2571;DHT22;1295;51.130;6.732;2023-03-31T01:11:54;11.30;99.90
2571;DHT22;1295;51.130;6.732;2023-03-31T01:14:20;11.30;99.90
2571;DHT22;1295;51.130;6.732;2023-03-31T01:16:45;11.40;99.90
2571;DHT22;1295;51.130;6.732;2023-03-31T01:19:15;11.30;99.90
2571;DHT22;1295;51.130;6.732;2023-03-31T01:27:13;11.40;99.90
2571;DHT22;1295;51.130;6.732;2023-03-31T01:29:47;11.40;99.90
2571;DHT22;1295;51.130;6.732;2023-03-31T01:35:10;11.10;99.90
2571;DHT22;1295;51.130;6.732;2023-03-31T01:37:55;11.80;99.90
2571;DHT22;1295;51.130;6.732;2023-03-31T01:42:53;11.60;99.90
2571;DHT22;1295;51.130;6.732;2023-03-31T01:48:14;11.20;99.90
2571;DHT22;1295;51.130;6.732;2023-03-31T01:51:01;11.10;99.90
2571;DHT22;1295;51.130;6.732;2023-03-31T01:53:32;11.00;99.90
2571;DHT22;1295;51.130;6.732;2023-03-31T01:56:04;11.00;99.90
2571;DHT22;1295;51.130;6.732;2023-03-31T01:58:29;11.10;99.90
2571;DHT22;1295;51.130;6.732;2023-03-31T02:00:54;11.00;99.90
2571;DHT22;1295;51.130;6.732;2023-03-31T02:03:21;11.10;99.90
2571;DHT22;1295;51.130;6.732;2023-03-31T02:05:48;11.20;99.90
2571;DHT22;1295;51.130;6.732;2023-03-31T02:08:17;11.30;99.90
2571;DHT22;1295;51.130;6.732;2023-03-31T02:10:41;11.20;99.90
2571;DHT22;1295;51.130;6.732;2023-03-31T02:13:07;11.50;99.90
2571;DHT22;1295;51.130;6.732;2023-03-31T02:15:34;11.50;99.90
2571;DHT22;1295;51.130;6.732;2023-03-31T02:18:00;11.40;99.90
2571;DHT22;1295;51.130;6.732;2023-03-31T02:20:26;11.40;99.90
2571;DHT22;1295;51.130;6.732;2023-03-31T02:22:53;11.40;99.90
2571;DHT22;1295;51.130;6.732;2023-03-31T02:25:19;11.40;99.90
2571;DHT22;1295;51.130;6.732;2023-03-31T02:27:46;11.60;99.90
2571;DHT22;1295;51.130;6.732;2023-03-31T02:30:11;11.60;99.90
2571;DHT22;1295;51.130;6.732;2023-03-31T02:32:38;11.20;99.90
2571;DHT22;1295;51.130;6.732;2023-03-31T02:35:04;11.20;99.90
2571;DHT22;1295;51.130;6.732;2023-03-31T02:37:29;11.20;99.90
2571;DHT22;1295;51.130;6.732;2023-03-31T02:39:56;11.20;99.90
2571;DHT22;1295;51.130;6.732;2023-03-31T02:42:21;11.20;99.90
2571;DHT22;1295;51.130;6.732;2023-03-31T02:44:46;11.20;99.90
2571;DHT22;1295;51.130;6.732;2023-03-31T02:47:13;11.10;99.90
2571;DHT22;1295;51.130;6.732;2023-03-31T02:49:39;11.20;99.90
2571;DHT22;1295;51.130;6.732;2023-03-31T02:52:11;11.20;99.90
2571;DHT22;1295;51.130;6.732;2023-03-31T02:55:00;11.20;99.90
2571;DHT22;1295;51.130;6.732;2023-03-31T03:00:39;11.30;99.90
2571;DHT22;1295;51.130;6.732;2023-03-31T03:06:51;11.40;99.90
2571;DHT22;1295;51.130;6.732;2023-03-31T03:09:24;11.70;99.90
2571;DHT22;1295;51.130;6.732;2023-03-31T03:11:46;11.70;99.90
2571;DHT22;1295;51.130;6.732;2023-03-31T03:14:33;11.40;99.90
2571;DHT22;1295;51.130;6.732;2023-03-31T03:17:01;11.40;99.90
2571;DHT22;1295;51.130;6.732;2023-03-31T03:19:25;11.40;99.90
2571;DHT22;1295;51.130;6.732;2023-03-31T03:21:50;11.50;99.90
2571;DHT22;1295;51.130;6.732;2023-03-31T03:24:16;11.50;99.90
2571;DHT22;1295;51.130;6.732;2023-03-31T03:26:43;11.50;99.90
2571;DHT22;1295;51.130;6.732;2023-03-31T03:29:08;11.50;99.90
2571;DHT22;1295;51.130;6.732;2023-03-31T03:31:33;11.50;99.90
2571;DHT22;1295;51.130;6.732;2023-03-31T03:34:00;11.60;99.90
2571;DHT22;1295;51.130;6.732;2023-03-31T03:36:25;11.60;99.90
2571;DHT22;1295;51.130;6.732;2023-03-31T03:38:51;11.70;99.90
2571;DHT22;1295;51.130;6.732;2023-03-31T03:41:24;11.90;99.90
2571;DHT22;1295;51.130;6.732;2023-03-31T03:43:49;11.70;99.90
2571;DHT22;1295;51.130;6.732;2023-03-31T03:46:15;11.90;99.90
2571;DHT22;1295;51.130;6.732;2023-03-31T03:48:41;12.00;99.90
2571;DHT22;1295;51.130;6.732;2023-03-31T03:51:06;12.00;99.90
2571;DHT22;1295;51.130;6.732;2023-03-31T03:53:32;12.00;99.90
2571;DHT22;1295;51.130;6.732;2023-03-31T03:55:58;12.00;99.90
2571;DHT22;1295;51.130;6.732;2023-03-31T03:58:23;11.90;99.90
2571;DHT22;1295;51.130;6.732;2023-03-31T04:00:49;12.00;99.90
2571;DHT22;1295;51.130;6.732;2023-03-31T04:03:15;12.00;99.90
2571;DHT22;1295;51.130;6.732;2023-03-31T04:05:50;12.00;99.90
2571;DHT22;1295;51.130;6.732;2023-03-31T04:08:16;11.90;99.90
2571;DHT22;1295;51.130;6.732;2023-03-31T04:10:44;11.80;99.90
2571;DHT22;1295;51.130;6.732;2023-03-31T04:13:09;11.80;99.90
2571;DHT22;1295;51.130;6.732;2023-03-31T04:15:35;11.80;99.90
2571;DHT22;1295;51.130;6.732;2023-03-31T04:18:00;11.70;99.90
2571;DHT22;1295;51.130;6.732;2023-03-31T04:20:26;11.70;99.90
2571;DHT22;1295;51.130;6.732;2023-03-31T04:22:52;11.60;99.90
2571;DHT22;1295;51.130;6.732;2023-03-31T04:25:17;11.80;99.90
2571;DHT22;1295;51.130;6.732;2023-03-31T04:27:43;11.80;99.90
2571;DHT22;1295;51.130;6.732;2023-03-31T04:30:13;11.80;99.90
2571;DHT22;1295;51.130;6.732;2023-03-31T04:32:39;11.70;99.90
2571;DHT22;1295;51.130;6.732;2023-03-31T04:35:06;11.70;99.90
2571;DHT22;1295;51.130;6.732;2023-03-31T04:37:33;11.80;99.90
2571;DHT22;1295;51.130;6.732;2023-03-31T04:39:59;11.80;99.90
2571;DHT22;1295;51.130;6.732;2023-03-31T04:42:24;11.90;99.90
2571;DHT22;1295;51.130;6.732;2023-03-31T04:44:49;11.70;99.90
2571;DHT22;1295;51.130;6.732;2023-03-31T04:47:15;11.90;99.90
2571;DHT22;1295;51.130;6.732;2023-03-31T04:49:41;11.80;99.90
2571;DHT22;1295;51.130;6.732;2023-03-31T04:52:06;11.80;99.90
2571;DHT22;1295;51.130;6.732;2023-03-31T04:54:32;11.70;99.90
2571;DHT22;1295;51.130;6.732;2023-03-31T04:56:58;11.70;99.90
2571;DHT22;1295;51.130;6.732;2023-03-31T04:59:23;11.80;99.90
2571;DHT22;1295;51.130;6.732;2023-03-31T05:01:49;11.90;99.90
2571;DHT22;1295;51.130;6.732;2023-03-31T05:04:19;11.90;99.90
2571;DHT22;1295;51.130;6.732;2023-03-31T05:06:51;11.70;99.90
2571;DHT22;1295;51.130;6.732;2023-03-31T05:09:17;11.60;99.90
2571;DHT22;1295;51.130;6.732;2023-03-31T05:11:43;11.70;99.90
2571;DHT22;1295;51.130;6.732;2023-03-31T05:14:08;11.80;99.90
2571;DHT22;1295;51.130;6.732;2023-03-31T05:16:34;11.80;99.90
2571;DHT22;1295;51.130;6.732;2023-03-31T05:18:59;11.90;99.90
2571;DHT22;1295;51.130;6.732;2023-03-31T05:21:25;11.90;99.90
2571;DHT22;1295;51.130;6.732;2023-03-31T05:23:51;11.80;99.90
2571;DHT22;1295;51.130;6.732;2023-03-31T05:26:16;11.90;99.90
2571;DHT22;1295;51.130;6.732;2023-03-31T05:28:42;11.90;99.90
2571;DHT22;1295;51.130;6.732;2023-03-31T05:31:08;11.90;99.90
2571;DHT22;1295;51.130;6.732;2023-03-31T05:33:33;11.90;99.90
2571;DHT22;1295;51.130;6.732;2023-03-31T05:35:59;11.70;99.90
2571;DHT22;1295;51.130;6.732;2023-03-31T05:38:25;11.70;99.90
2571;DHT22;1295;51.130;6.732;2023-03-31T05:40:50;11.60;99.90
2571;DHT22;1295;51.130;6.732;2023-03-31T05:43:17;11.70;99.90
2571;DHT22;1295;51.130;6.732;2023-03-31T05:45:42;11.70;99.90
2571;DHT22;1295;51.130;6.732;2023-03-31T05:48:09;11.70;99.90
2571;DHT22;1295;51.130;6.732;2023-03-31T05:50:34;11.80;99.90
2571;DHT22;1295;51.130;6.732;2023-03-31T05:53:00;11.70;99.90
2571;DHT22;1295;51.130;6.732;2023-03-31T05:55:25;11.60;99.90
2571;DHT22;1295;51.130;6.732;2023-03-31T05:57:51;11.60;99.90
2571;DHT22;1295;51.130;6.732;2023-03-31T06:00:17;11.50;99.90
2571;DHT22;1295;51.130;6.732;2023-03-31T06:02:43;11.30;99.90
2571;DHT22;1295;51.130;6.732;2023-03-31T06:05:09;11.20;99.90
2571;DHT22;1295;51.130;6.732;2023-03-31T06:07:34;11.50;99.90
2571;DHT22;1295;51.130;6.732;2023-03-31T06:10:00;11.30;99.90
2571;DHT22;1295;51.130;6.732;2023-03-31T06:12:26;11.50;99.90
2571;DHT22;1295;51.130;6.732;2023-03-31T06:14:51;11.70;99.90
2571;DHT22;1295;51.130;6.732;2023-03-31T06:17:17;11.70;99.90
2571;DHT22;1295;51.130;6.732;2023-03-31T06:19:43;11.70;99.90
2571;DHT22;1295;51.130;6.732;2023-03-31T06:22:09;11.70;99.90
2571;DHT22;1295;51.130;6.732;2023-03-31T06:24:35;11.70;99.90
2571;DHT22;1295;51.130;6.732;2023-03-31T06:27:00;11.50;99.90
2571;DHT22;1295;51.130;6.732;2023-03-31T06:29:26;11.70;99.90
2571;DHT22;1295;51.130;6.732;2023-03-31T06:31:52;11.50;99.90
2571;DHT22;1295;51.130;6.732;2023-03-31T06:34:17;11.60;99.90
2571;DHT22;1295;51.130;6.732;2023-03-31T06:36:43;11.10;99.90
2571;DHT22;1295;51.130;6.732;2023-03-31T06:39:08;11.00;99.90
2571;DHT22;1295;51.130;6.732;2023-03-31T06:41:34;10.90;99.90
2571;DHT22;1295;51.130;6.732;2023-03-31T06:44:00;11.00;99.90
2571;DHT22;1295;51.130;6.732;2023-03-31T06:46:26;10.90;99.90
2571;DHT22;1295;51.130;6.732;2023-03-31T06:48:52;10.90;99.90
2571;DHT22;1295;51.130;6.732;2023-03-31T06:51:18;11.00;99.90
2571;DHT22;1295;51.130;6.732;2023-03-31T06:53:44;11.00;99.90
2571;DHT22;1295;51.130;6.732;2023-03-31T06:56:09;11.00;99.90
2571;DHT22;1295;51.130;6.732;2023-03-31T06:58:35;11.00;99.90
2571;DHT22;1295;51.130;6.732;2023-03-31T07:01:03;11.10;99.90
2571;DHT22;1295;51.130;6.732;2023-03-31T07:03:28;11.10;99.90
2571;DHT22;1295;51.130;6.732;2023-03-31T07:05:54;11.20;99.90
2571;DHT22;1295;51.130;6.732;2023-03-31T07:08:19;11.10;99.90
2571;DHT22;1295;51.130;6.732;2023-03-31T07:10:46;11.20;99.90
2571;DHT22;1295;51.130;6.732;2023-03-31T07:13:12;11.20;99.90
2571;DHT22;1295;51.130;6.732;2023-03-31T07:15:37;11.20;99.90
2571;DHT22;1295;51.130;6.732;2023-03-31T07:18:03;11.20;99.90
2571;DHT22;1295;51.130;6.732;2023-03-31T07:20:28;11.20;99.90
2571;DHT22;1295;51.130;6.732;2023-03-31T07:22:55;11.30;99.90
2571;DHT22;1295;51.130;6.732;2023-03-31T07:25:20;11.30;99.90
2571;DHT22;1295;51.130;6.732;2023-03-31T07:27:47;11.30;99.90
2571;DHT22;1295;51.130;6.732;2023-03-31T07:30:14;11.30;99.90
2571;DHT22;1295;51.130;6.732;2023-03-31T07:32:39;11.50;99.90
2571;DHT22;1295;51.130;6.732;2023-03-31T07:35:05;11.50;99.90
2571;DHT22;1295;51.130;6.732;2023-03-31T07:37:35;11.60;99.90
2571;DHT22;1295;51.130;6.732;2023-03-31T07:40:00;11.70;99.90
2571;DHT22;1295;51.130;6.732;2023-03-31T07:42:25;11.70;99.90
2571;DHT22;1295;51.130;6.732;2023-03-31T07:44:51;11.90;99.90
2571;DHT22;1295;51.130;6.732;2023-03-31T07:47:17;12.00;99.90
2571;DHT22;1295;51.130;6.732;2023-03-31T07:49:43;12.00;99.90
2571;DHT22;1295;51.130;6.732;2023-03-31T07:52:09;12.40;99.90
2571;DHT22;1295;51.130;6.732;2023-03-31T07:54:35;12.40;99.90
2571;DHT22;1295;51.130;6.732;2023-03-31T07:57:01;12.30;99.90
2571;DHT22;1295;51.130;6.732;2023-03-31T07:59:26;12.30;99.90
2571;DHT22;1295;51.130;6.732;2023-03-31T08:01:52;12.30;99.90
2571;DHT22;1295;51.130;6.732;2023-03-31T08:04:17;12.40;99.90
2571;DHT22;1295;51.130;6.732;2023-03-31T08:06:43;12.40;99.90
2571;DHT22;1295;51.130;6.732;2023-03-31T08:09:09;12.40;99.90
2571;DHT22;1295;51.130;6.732;2023-03-31T08:11:34;12.30;99.90
2571;DHT22;1295;51.130;6.732;2023-03-31T08:14:00;12.30;99.90
2571;DHT22;1295;51.130;6.732;2023-03-31T08:16:26;12.20;99.90
2571;DHT22;1295;51.130;6.732;2023-03-31T08:18:51;12.20;99.90
2571;DHT22;1295;51.130;6.732;2023-03-31T08:21:17;12.20;99.90
2571;DHT22;1295;51.130;6.732;2023-03-31T08:23:42;12.10;99.90
2571;DHT22;1295;51.130;6.732;2023-03-31T08:26:09;12.10;99.90
2571;DHT22;1295;51.130;6.732;2023-03-31T08:28:34;12.10;99.90
2571;DHT22;1295;51.130;6.732;2023-03-31T08:31:03;12.10;99.90
2571;DHT22;1295;51.130;6.732;2023-03-31T08:33:27;12.10;99.90
2571;DHT22;1295;51.130;6.732;2023-03-31T08:35:53;12.10;99.90
2571;DHT22;1295;51.130;6.732;2023-03-31T08:38:19;12.10;99.90
2571;DHT22;1295;51.130;6.732;2023-03-31T08:40:45;12.10;99.90
2571;DHT22;1295;51.130;6.732;2023-03-31T08:43:12;12.30;99.90
2571;DHT22;1295;51.130;6.732;2023-03-31T08:45:38;12.50;99.90
2571;DHT22;1295;51.130;6.732;2023-03-31T08:48:08;12.50;99.90
2571;DHT22;1295;51.130;6.732;2023-03-31T08:50:32;12.60;99.90
2571;DHT22;1295;51.130;6.732;2023-03-31T08:53:03;12.70;99.90
2571;DHT22;1295;51.130;6.732;2023-03-31T08:55:26;13.00;99.90
2571;DHT22;1295;51.130;6.732;2023-03-31T08:58:02;12.90;99.90
2571;DHT22;1295;51.130;6.732;2023-03-31T09:00:26;13.20;99.90
2571;DHT22;1295;51.130;6.732;2023-03-31T09:02:58;13.40;99.90
2571;DHT22;1295;51.130;6.732;2023-03-31T09:10:42;12.90;99.90
2571;DHT22;1295;51.130;6.732;2023-03-31T09:13:28;12.90;99.90
2571;DHT22;1295;51.130;6.732;2023-03-31T09:15:49;13.10;99.90
2571;DHT22;1295;51.130;6.732;2023-03-31T09:18:17;13.00;99.90
2571;DHT22;1295;51.130;6.732;2023-03-31T09:20:42;12.90;99.90
2571;DHT22;1295;51.130;6.732;2023-03-31T09:23:18;12.80;99.90
2571;DHT22;1295;51.130;6.732;2023-03-31T09:25:37;12.80;99.90
2571;DHT22;1295;51.130;6.732;2023-03-31T09:28:02;13.10;99.90
2571;DHT22;1295;51.130;6.732;2023-03-31T09:30:30;12.90;99.90
2571;DHT22;1295;51.130;6.732;2023-03-31T09:33:03;12.90;99.90
2571;DHT22;1295;51.130;6.732;2023-03-31T09:35:24;13.50;99.90
2571;DHT22;1295;51.130;6.732;2023-03-31T09:37:49;13.50;99.90
2571;DHT22;1295;51.130;6.732;2023-03-31T09:40:20;13.20;99.90
2571;DHT22;1295;51.130;6.732;2023-03-31T09:42:46;13.10;99.90
2571;DHT22;1295;51.130;6.732;2023-03-31T09:45:15;13.10;99.90
2571;DHT22;1295;51.130;6.732;2023-03-31T09:47:42;13.50;99.90
2571;DHT22;1295;51.130;6.732;2023-03-31T09:50:08;13.10;99.90
2571;DHT22;1295;51.130;6.732;2023-03-31T09:52:36;13.30;99.90
2571;DHT22;1295;51.130;6.732;2023-03-31T09:55:02;13.20;99.90
2571;DHT22;1295;51.130;6.732;2023-03-31T09:57:29;13.20;99.90
2571;DHT22;1295;51.130;6.732;2023-03-31T10:00:00;13.10;99.90
2571;DHT22;1295;51.130;6.732;2023-03-31T10:02:28;13.10;99.90
2571;DHT22;1295;51.130;6.732;2023-03-31T10:04:52;13.00;99.90
2571;DHT22;1295;51.130;6.732;2023-03-31T10:07:19;13.00;99.90
2571;DHT22;1295;51.130;6.732;2023-03-31T10:09:44;13.00;99.90
2571;DHT22;1295;51.130;6.732;2023-03-31T10:12:15;13.00;99.90
2571;DHT22;1295;51.130;6.732;2023-03-31T10:14:42;13.10;99.90
2571;DHT22;1295;51.130;6.732;2023-03-31T10:17:06;13.40;99.90
2571;DHT22;1295;51.130;6.732;2023-03-31T10:19:33;13.10;99.90
2571;DHT22;1295;51.130;6.732;2023-03-31T10:22:00;13.30;99.90
2571;DHT22;1295;51.130;6.732;2023-03-31T10:26:58;13.80;99.90
2571;DHT22;1295;51.130;6.732;2023-03-31T10:29:30;13.80;99.90
2571;DHT22;1295;51.130;6.732;2023-03-31T10:31:51;14.40;99.90
2571;DHT22;1295;51.130;6.732;2023-03-31T10:34:16;14.30;99.90
2571;DHT22;1295;51.130;6.732;2023-03-31T10:36:47;14.60;99.90
2571;DHT22;1295;51.130;6.732;2023-03-31T10:39:13;14.40;99.90
2571;DHT22;1295;51.130;6.732;2023-03-31T10:41:37;14.00;99.90
2571;DHT22;1295;51.130;6.732;2023-03-31T10:44:03;14.40;99.90
2571;DHT22;1295;51.130;6.732;2023-03-31T10:46:48;14.10;99.90
2571;DHT22;1295;51.130;6.732;2023-03-31T10:49:23;13.90;99.90
2571;DHT22;1295;51.130;6.732;2023-03-31T10:51:48;13.50;99.90
2571;DHT22;1295;51.130;6.732;2023-03-31T10:54:14;13.10;99.90
2571;DHT22;1295;51.130;6.732;2023-03-31T10:56:43;12.90;99.90
2571;DHT22;1295;51.130;6.732;2023-03-31T11:02:21;12.80;99.90
2571;DHT22;1295;51.130;6.732;2023-03-31T11:04:49;12.70;99.90
2571;DHT22;1295;51.130;6.732;2023-03-31T11:07:22;12.80;99.90
2571;DHT22;1295;51.130;6.732;2023-03-31T11:09:59;12.80;99.90
2571;DHT22;1295;51.130;6.732;2023-03-31T11:12:25;12.90;99.90
2571;DHT22;1295;51.130;6.732;2023-03-31T11:15:12;12.80;99.90
2571;DHT22;1295;51.130;6.732;2023-03-31T11:17:47;12.50;99.90
2571;DHT22;1295;51.130;6.732;2023-03-31T11:20:19;12.60;99.90
2571;DHT22;1295;51.130;6.732;2023-03-31T11:22:46;12.50;99.90
2571;DHT22;1295;51.130;6.732;2023-03-31T11:30:37;12.60;99.90
2571;DHT22;1295;51.130;6.732;2023-03-31T11:33:21;12.70;99.90
2571;DHT22;1295;51.130;6.732;2023-03-31T11:36:35;12.70;99.90
2571;DHT22;1295;51.130;6.732;2023-03-31T11:39:19;12.80;99.90
2571;DHT22;1295;51.130;6.732;2023-03-31T11:41:44;12.80;99.90
2571;DHT22;1295;51.130;6.732;2023-03-31T11:44:10;12.80;99.90
2571;DHT22;1295;51.130;6.732;2023-03-31T11:46:43;12.80;99.90
2571;DHT22;1295;51.130;6.732;2023-03-31T11:49:17;12.80;99.90
2571;DHT22;1295;51.130;6.732;2023-03-31T11:51:46;12.90;99.90
2571;DHT22;1295;51.130;6.732;2023-03-31T11:54:15;13.00;99.90
2571;DHT22;1295;51.130;6.732;2023-03-31T11:56:37;13.10;99.90
2571;DHT22;1295;51.130;6.732;2023-03-31T11:59:02;13.00;99.90
2571;DHT22;1295;51.130;6.732;2023-03-31T12:01:32;13.20;99.90
2571;DHT22;1295;51.130;6.732;2023-03-31T12:06:41;13.20;99.90
2571;DHT22;1295;51.130;6.732;2023-03-31T12:09:27;13.20;99.90
2571;DHT22;1295;51.130;6.732;2023-03-31T12:11:56;13.20;99.90
2571;DHT22;1295;51.130;6.732;2023-03-31T12:14:28;13.10;99.90
2571;DHT22;1295;51.130;6.732;2023-03-31T12:16:52;13.10;99.90
2571;DHT22;1295;51.130;6.732;2023-03-31T12:19:27;13.10;99.90
2571;DHT22;1295;51.130;6.732;2023-03-31T12:21:57;13.10;99.90
2571;DHT22;1295;51.130;6.732;2023-03-31T12:24:21;13.20;99.90
2571;DHT22;1295;51.130;6.732;2023-03-31T12:26:52;13.20;99.90
2571;DHT22;1295;51.130;6.732;2023-03-31T12:29:27;13.30;99.90
2571;DHT22;1295;51.130;6.732;2023-03-31T12:31:54;13.40;99.90
2571;DHT22;1295;51.130;6.732;2023-03-31T12:34:20;13.60;99.90
2571;DHT22;1295;51.130;6.732;2023-03-31T12:37:07;13.50;99.90
2571;DHT22;1295;51.130;6.732;2023-03-31T12:39:40;13.70;99.90
2571;DHT22;1295;51.130;6.732;2023-03-31T12:42:55;13.70;99.90
2571;DHT22;1295;51.130;6.732;2023-03-31T12:45:05;13.60;99.90
2571;DHT22;1295;51.130;6.732;2023-03-31T12:47:34;13.70;99.90
2571;DHT22;1295;51.130;6.732;2023-03-31T12:50:15;13.60;99.90
2571;DHT22;1295;51.130;6.732;2023-03-31T12:52:47;13.60;99.90
2571;DHT22;1295;51.130;6.732;2023-03-31T12:55:26;13.70;99.90
2571;DHT22;1295;51.130;6.732;2023-03-31T12:57:48;13.60;99.90
2571;DHT22;1295;51.130;6.732;2023-03-31T13:00:25;13.50;99.90
2571;DHT22;1295;51.130;6.732;2023-03-31T13:05:49;13.60;99.90
2571;DHT22;1295;51.130;6.732;2023-03-31T13:08:47;13.90;99.90
2571;DHT22;1295;51.130;6.732;2023-03-31T13:10:57;13.70;99.90
2571;DHT22;1295;51.130;6.732;2023-03-31T13:13:23;13.70;99.90
2571;DHT22;1295;51.130;6.732;2023-03-31T13:15:50;13.70;99.90
2571;DHT22;1295;51.130;6.732;2023-03-31T13:18:17;13.80;99.90
2571;DHT22;1295;51.130;6.732;2023-03-31T13:20:41;13.90;99.90
2571;DHT22;1295;51.130;6.732;2023-03-31T13:23:15;13.90;99.90
2571;DHT22;1295;51.130;6.732;2023-03-31T13:25:42;13.90;99.90
2571;DHT22;1295;51.130;6.732;2023-03-31T13:28:09;14.30;99.90
2571;DHT22;1295;51.130;6.732;2023-03-31T13:30:54;14.40;99.90
2571;DHT22;1295;51.130;6.732;2023-03-31T13:33:57;14.30;99.90
2571;DHT22;1295;51.130;6.732;2023-03-31T13:44:48;14.20;99.90
2571;DHT22;1295;51.130;6.732;2023-03-31T13:52:58;14.40;99.90
2571;DHT22;1295;51.130;6.732;2023-03-31T13:55:35;14.70;99.90
2571;DHT22;1295;51.130;6.732;2023-03-31T13:58:09;14.50;99.90
2571;DHT22;1295;51.130;6.732;2023-03-31T14:01:00;14.40;99.90
2571;DHT22;1295;51.130;6.732;2023-03-31T14:06:32;14.60;99.90
2571;DHT22;1295;51.130;6.732;2023-03-31T14:08:58;14.80;99.90
2571;DHT22;1295;51.130;6.732;2023-03-31T14:11:25;14.60;99.90
2571;DHT22;1295;51.130;6.732;2023-03-31T14:13:58;14.40;99.90
2571;DHT22;1295;51.130;6.732;2023-03-31T14:16:23;14.40;99.90
2571;DHT22;1295;51.130;6.732;2023-03-31T14:18:49;14.40;99.90
2571;DHT22;1295;51.130;6.732;2023-03-31T14:21:23;14.10;99.90
2571;DHT22;1295;51.130;6.732;2023-03-31T14:23:59;14.30;99.90
2571;DHT22;1295;51.130;6.732;2023-03-31T14:26:42;14.20;99.90
2571;DHT22;1295;51.130;6.732;2023-03-31T14:29:14;14.20;99.90
2571;DHT22;1295;51.130;6.732;2023-03-31T14:31:39;14.20;99.90
2571;DHT22;1295;51.130;6.732;2023-03-31T14:36:45;14.20;99.90
2571;DHT22;1295;51.130;6.732;2023-03-31T14:39:09;14.20;99.90
2571;DHT22;1295;51.130;6.732;2023-03-31T14:41:34;14.20;99.90
2571;DHT22;1295;51.130;6.732;2023-03-31T14:44:00;14.00;99.90
2571;DHT22;1295;51.130;6.732;2023-03-31T14:46:25;13.90;99.90
2571;DHT22;1295;51.130;6.732;2023-03-31T14:48:51;13.90;99.90
2571;DHT22;1295;51.130;6.732;2023-03-31T14:51:18;14.00;99.90
2571;DHT22;1295;51.130;6.732;2023-03-31T14:53:42;14.00;99.90
2571;DHT22;1295;51.130;6.732;2023-03-31T14:56:10;13.90;99.90
2571;DHT22;1295;51.130;6.732;2023-03-31T14:58:36;13.90;99.90
2571;DHT22;1295;51.130;6.732;2023-03-31T15:01:02;13.80;99.90
2571;DHT22;1295;51.130;6.732;2023-03-31T15:03:27;13.70;99.90
2571;DHT22;1295;51.130;6.732;2023-03-31T15:05:55;13.60;99.90
2571;DHT22;1295;51.130;6.732;2023-03-31T15:08:20;13.60;99.90
2571;DHT22;1295;51.130;6.732;2023-03-31T15:10:47;13.50;99.90
2571;DHT22;1295;51.130;6.732;2023-03-31T15:13:15;13.30;99.90
2571;DHT22;1295;51.130;6.732;2023-03-31T15:15:40;13.20;99.90
2571;DHT22;1295;51.130;6.732;2023-03-31T15:18:05;13.00;99.90
2571;DHT22;1295;51.130;6.732;2023-03-31T15:20:35;13.00;99.90
2571;DHT22;1295;51.130;6.732;2023-03-31T15:23:00;13.00;99.90
2571;DHT22;1295;51.130;6.732;2023-03-31T15:25:29;13.00;99.90
2571;DHT22;1295;51.130;6.732;2023-03-31T15:27:57;12.90;99.90
2571;DHT22;1295;51.130;6.732;2023-03-31T15:30:22;12.90;99.90
2571;DHT22;1295;51.130;6.732;2023-03-31T15:32:47;13.10;99.90
2571;DHT22;1295;51.130;6.732;2023-03-31T15:35:25;12.80;99.90
2571;DHT22;1295;51.130;6.732;2023-03-31T15:37:51;12.80;99.90
2571;DHT22;1295;51.130;6.732;2023-03-31T15:40:35;12.90;99.90
2571;DHT22;1295;51.130;6.732;2023-03-31T15:43:02;12.60;99.90
2571;DHT22;1295;51.130;6.732;2023-03-31T15:45:37;12.60;99.90
2571;DHT22;1295;51.130;6.732;2023-03-31T15:48:08;12.60;99.90
2571;DHT22;1295;51.130;6.732;2023-03-31T15:50:31;12.80;99.90
2571;DHT22;1295;51.130;6.732;2023-03-31T15:52:56;12.90;99.90
2571;DHT22;1295;51.130;6.732;2023-03-31T15:55:26;12.80;99.90
2571;DHT22;1295;51.130;6.732;2023-03-31T15:57:51;12.80;99.90
2571;DHT22;1295;51.130;6.732;2023-03-31T16:02:54;12.60;99.90
2571;DHT22;1295;51.130;6.732;2023-03-31T16:05:31;12.70;99.90
2571;DHT22;1295;51.130;6.732;2023-03-31T16:07:49;12.60;99.90
2571;DHT22;1295;51.130;6.732;2023-03-31T16:10:17;12.70;99.90
2571;DHT22;1295;51.130;6.732;2023-03-31T16:12:53;12.70;99.90
2571;DHT22;1295;51.130;6.732;2023-03-31T16:15:18;12.80;99.90
2571;DHT22;1295;51.130;6.732;2023-03-31T16:17:49;12.80;99.90
2571;DHT22;1295;51.130;6.732;2023-03-31T16:20:20;12.80;99.90
2571;DHT22;1295;51.130;6.732;2023-03-31T16:22:46;12.80;99.90
2571;DHT22;1295;51.130;6.732;2023-03-31T16:25:12;12.70;99.90
2571;DHT22;1295;51.130;6.732;2023-03-31T16:27:40;12.80;99.90
2571;DHT22;1295;51.130;6.732;2023-03-31T16:30:08;12.80;99.90
2571;DHT22;1295;51.130;6.732;2023-03-31T16:32:33;12.90;99.90
2571;DHT22;1295;51.130;6.732;2023-03-31T16:35:00;12.90;99.90
2571;DHT22;1295;51.130;6.732;2023-03-31T16:37:25;12.90;99.90
2571;DHT22;1295;51.130;6.732;2023-03-31T16:39:50;12.90;99.90
2571;DHT22;1295;51.130;6.732;2023-03-31T16:42:16;12.80;99.90
2571;DHT22;1295;51.130;6.732;2023-03-31T16:44:42;12.80;99.90
2571;DHT22;1295;51.130;6.732;2023-03-31T16:47:07;12.90;99.90
2571;DHT22;1295;51.130;6.732;2023-03-31T16:49:34;12.70;99.90
2571;DHT22;1295;51.130;6.732;2023-03-31T16:51:59;12.70;99.90
2571;DHT22;1295;51.130;6.732;2023-03-31T16:54:25;12.70;99.90
2571;DHT22;1295;51.130;6.732;2023-03-31T16:56:51;12.70;99.90
2571;DHT22;1295;51.130;6.732;2023-03-31T16:59:16;12.80;99.90
2571;DHT22;1295;51.130;6.732;2023-03-31T17:01:42;12.70;99.90
2571;DHT22;1295;51.130;6.732;2023-03-31T17:04:07;12.50;99.90
2571;DHT22;1295;51.130;6.732;2023-03-31T17:06:33;12.60;99.90
2571;DHT22;1295;51.130;6.732;2023-03-31T17:08:59;12.50;99.90
2571;DHT22;1295;51.130;6.732;2023-03-31T17:11:25;12.50;99.90
2571;DHT22;1295;51.130;6.732;2023-03-31T17:13:51;12.50;99.90